Time;durP1;ratioP1;P1;durP2;ratioP2;P2;SDS_P1;SDS_P2;PMS_P1;PMS_P2;Temp;Humidity;BMP_temperature;BMP_pressure;BME280_temperature;BME280_humidity;BME280_pressure;Samples;Min_cycle;Max_cycle;Signal;HPM_P1;HPM_P2
2023/01/01 00:00:19;;;;;;;21.60;15.43;;;;;;;7.74;72.61;99739.67;1786707;80;21507;-40
2023/01/01 00:02:46;;;;;;;21.00;15.93;;;;;;;7.73;72.61;99741.58;1787018;80;21009;-40
2023/01/01 00:05:13;;;;;;;21.35;15.93;;;;;;;7.71;72.70;99745.72;1786946;79;21068;-40
2023/01/01 00:07:39;;;;;;;22.40;15.70;;;;;;;7.69;72.81;99747.97;1787013;80;21013;-40
2023/01/01 00:10:27;;;;;;;20.85;15.13;;;;;;;7.69;72.92;99742.58;1787043;80;21322;-40
2023/01/01 00:12:55;;;;;;;23.07;16.07;;;;;;;7.77;72.82;99749.24;1770596;80;20948;-40
2023/01/01 00:15:22;;;;;;;24.18;15.93;;;;;;;7.81;72.67;99739.36;1786964;79;22033;-40
2023/01/01 00:17:48;;;;;;;21.23;15.88;;;;;;;7.80;72.67;99741.03;1786963;80;21002;-40
2023/01/01 00:20:15;;;;;;;24.63;16.57;;;;;;;7.79;72.68;99742.94;1787012;79;21028;-40
2023/01/01 00:22:42;;;;;;;21.73;15.48;;;;;;;7.78;72.75;99745.42;1787153;80;21142;-40
2023/01/01 00:25:10;;;;;;;19.35;14.00;;;;;;;7.80;72.72;99732.93;1787040;79;21435;-40
2023/01/01 00:27:37;;;;;;;22.10;15.18;;;;;;;7.84;72.69;99733.87;1787413;80;20937;-40
2023/01/01 00:30:05;;;;;;;21.20;15.40;;;;;;;7.84;72.65;99731.94;1787355;79;21871;-40
2023/01/01 00:32:32;;;;;;;22.15;15.90;;;;;;;7.81;72.74;99728.56;1787784;80;21716;-40
2023/01/01 00:35:00;;;;;;;21.65;14.87;;;;;;;7.79;72.87;99732.73;1787197;80;21234;-40
2023/01/01 00:37:27;;;;;;;20.82;14.28;;;;;;;7.77;72.90;99737.66;1786874;79;21008;-40
2023/01/01 00:39:54;;;;;;;22.60;15.25;;;;;;;7.76;72.90;99732.02;1787179;79;20917;-40
2023/01/01 00:42:21;;;;;;;19.77;15.00;;;;;;;7.79;72.91;99740.83;1787122;79;21024;-40
2023/01/01 00:44:49;;;;;;;21.35;15.43;;;;;;;7.79;72.86;99737.53;1787135;80;21049;-40
2023/01/01 00:47:15;;;;;;;21.15;15.85;;;;;;;7.78;72.81;99730.58;1786986;80;21259;-40
2023/01/01 00:49:42;;;;;;;21.87;16.00;;;;;;;7.75;72.73;99726.39;1787090;79;20988;-40
2023/01/01 00:52:10;;;;;;;19.20;14.35;;;;;;;7.70;72.70;99718.49;1787105;79;20906;-40
2023/01/01 00:54:37;;;;;;;19.62;14.55;;;;;;;7.66;72.76;99716.23;1787103;80;21029;-40
2023/01/01 00:57:03;;;;;;;19.48;14.80;;;;;;;7.68;72.75;99724.80;1787067;79;21072;-40
2023/01/01 00:59:30;;;;;;;20.48;15.40;;;;;;;7.71;72.68;99733.57;1786961;80;23160;-40
2023/01/01 01:01:57;;;;;;;20.75;15.90;;;;;;;7.68;72.70;99720.75;1787057;79;20878;-40
2023/01/01 01:04:24;;;;;;;22.75;16.30;;;;;;;7.65;72.78;99719.48;1787244;80;21522;-40
2023/01/01 01:06:51;;;;;;;21.42;15.30;;;;;;;7.62;72.90;99726.11;1787060;79;20925;-40
2023/01/01 01:09:18;;;;;;;21.20;14.87;;;;;;;7.62;73.00;99730.16;1787122;80;20952;-40
2023/01/01 01:11:46;;;;;;;20.65;15.60;;;;;;;7.65;73.05;99733.56;1787085;79;21021;-40
2023/01/01 01:14:13;;;;;;;22.98;14.68;;;;;;;7.67;73.12;99733.45;1786901;80;20886;-40
2023/01/01 01:16:40;;;;;;;18.32;14.00;;;;;;;7.64;73.41;99731.42;1786999;80;21045;-40
2023/01/01 01:19:08;;;;;;;22.70;15.93;;;;;;;7.63;73.59;99731.75;1787054;79;21033;-40
2023/01/01 01:21:35;;;;;;;19.48;13.88;;;;;;;7.60;73.82;99735.88;1773170;80;20982;-40
2023/01/01 01:24:02;;;;;;;17.25;12.63;;;;;;;7.62;74.03;99731.51;1773045;81;21256;-40
2023/01/01 01:26:32;;;;;;;16.70;12.43;;;;;;;7.68;74.07;99727.50;1772854;81;21077;-40
2023/01/01 01:28:59;;;;;;;15.80;10.17;;;;;;;7.75;74.09;99720.43;1773246;79;21002;-40
2023/01/01 01:31:30;;;;;;;20.92;13.08;;;;;;;7.76;74.31;99723.37;1772959;81;20965;-40
2023/01/01 01:33:56;;;;;;;19.70;12.75;;;;;;;7.76;74.60;99732.81;1773141;79;20957;-40
2023/01/01 01:36:24;;;;;;;18.23;12.73;;;;;;;7.77;74.92;99735.75;1773103;81;21191;-40
2023/01/01 01:38:50;;;;;;;16.87;11.80;;;;;;;7.81;75.15;99722.38;1772865;81;21513;-40
2023/01/01 01:41:21;;;;;;;16.70;11.33;;;;;;;7.91;75.03;99721.95;1773088;81;21031;-40
2023/01/01 01:43:58;;;;;;;16.62;12.50;;;;;;;7.98;74.93;99716.03;1773251;81;21009;-40
2023/01/01 01:46:40;;;;;;;17.12;12.23;;;;;;;8.01;74.89;99710.74;1773137;81;21005;-40
2023/01/01 01:49:18;;;;;;;15.80;11.60;;;;;;;8.03;74.96;99713.91;1769587;79;21152;-40
2023/01/01 01:51:45;;;;;;;15.32;10.95;;;;;;;8.10;74.81;99710.09;1766545;81;21062;-40
2023/01/01 01:54:15;;;;;;;18.05;12.10;;;;;;;8.17;74.61;99702.24;1766662;81;21084;-40
2023/01/01 01:56:55;;;;;;;17.35;11.95;;;;;;;8.23;74.46;99705.48;1766684;81;21072;-40
2023/01/01 01:59:22;;;;;;;18.02;12.10;;;;;;;8.24;74.36;99698.41;1767183;81;21020;-40
2023/01/01 02:01:49;;;;;;;16.85;11.18;;;;;;;8.25;74.39;99697.86;1743154;81;21234;-40
2023/01/01 02:04:15;;;;;;;14.58;10.95;;;;;;;8.28;74.35;99706.06;1766486;81;20905;-40
2023/01/01 02:06:42;;;;;;;15.05;10.98;;;;;;;8.36;74.15;99705.79;1766806;81;21024;-40
2023/01/01 02:09:10;;;;;;;13.90;10.88;;;;;;;8.41;73.95;99702.08;1766625;81;20972;-40
2023/01/01 02:11:38;;;;;;;14.80;11.70;;;;;;;8.43;73.87;99701.95;1766955;81;21044;-40
2023/01/01 02:14:05;;;;;;;14.60;10.63;;;;;;;8.44;73.83;99706.80;1766615;81;21115;-40
2023/01/01 02:16:52;;;;;;;15.43;10.40;;;;;;;8.44;73.77;99704.09;1766662;81;20921;-40
2023/01/01 02:20:02;;;;;;;14.03;10.85;;;;;;;8.48;73.70;99705.78;1766473;81;20937;-40
2023/01/01 02:22:59;;;;;;;12.82;10.10;;;;;;;8.53;73.55;99703.42;1766714;81;21499;-40
2023/01/01 02:26:09;;;;;;;16.90;12.00;;;;;;;8.51;73.65;99707.05;1733208;81;21506;-40
2023/01/01 02:28:53;;;;;;;14.40;10.85;;;;;;;8.50;73.75;99713.56;1766623;81;21228;-40
2023/01/01 02:31:31;;;;;;;12.53;9.95;;;;;;;8.52;73.75;99708.62;1766591;81;21017;-40
2023/01/01 02:34:04;;;;;;;15.58;10.60;;;;;;;8.54;73.72;99701.75;1767045;81;21005;-40
2023/01/01 02:36:32;;;;;;;16.00;10.98;;;;;;;8.55;73.71;99706.59;1766506;81;21699;-40
2023/01/01 02:39:00;;;;;;;14.03;10.20;;;;;;;8.55;73.73;99702.53;1766871;81;21107;-40
2023/01/01 02:41:30;;;;;;;13.95;10.45;;;;;;;8.53;73.76;99708.83;1766441;81;21913;-40
2023/01/01 02:43:57;;;;;;;14.55;9.68;;;;;;;8.56;73.77;99704.12;1766871;81;21479;-40
2023/01/01 02:46:26;;;;;;;14.43;10.80;;;;;;;8.60;73.66;99692.86;1766521;81;21020;-40
2023/01/01 02:48:52;;;;;;;15.13;10.55;;;;;;;8.64;73.57;99680.23;1719258;81;21056;-40
2023/01/01 02:51:33;;;;;;;14.07;11.20;;;;;;;8.63;73.58;99688.11;1766678;81;21080;-40
2023/01/01 02:54:21;;;;;;;17.30;10.38;;;;;;;8.63;73.63;99682.70;1766580;81;21224;-40
2023/01/01 02:57:08;;;;;;;15.75;11.15;;;;;;;8.61;73.78;99698.49;1766048;81;20977;-40
2023/01/01 03:00:20;;;;;;;14.60;10.55;;;;;;;8.60;73.96;99698.26;1766513;81;21483;-40
2023/01/01 03:03:11;;;;;;;15.18;10.78;;;;;;;8.63;74.02;99694.88;1766583;81;21025;-40
2023/01/01 03:08:55;;;;;;;12.95;9.63;;;;;;;8.61;74.16;99687.13;1766635;81;21142;-40
2023/01/01 03:11:24;;;;;;;12.60;9.83;;;;;;;8.64;74.16;99689.14;1766433;81;20989;-40
2023/01/01 03:14:26;;;;;;;14.05;9.25;;;;;;;8.71;74.13;99685.88;1766829;81;21076;-40
2023/01/01 03:17:08;;;;;;;12.88;9.80;;;;;;;8.75;74.04;99688.13;1766456;81;21609;-40
2023/01/01 03:19:38;;;;;;;15.03;9.78;;;;;;;8.73;74.15;99694.42;1766710;81;21056;-40
2023/01/01 03:22:17;;;;;;;12.65;9.25;;;;;;;8.73;74.19;99693.86;1783879;80;25007;-40
2023/01/01 03:25:00;;;;;;;13.90;9.25;;;;;;;8.76;74.21;99700.52;1785930;80;21605;-40
2023/01/01 03:27:35;;;;;;;12.05;9.25;;;;;;;8.81;74.12;99700.27;1785923;80;21520;-40
2023/01/01 03:30:07;;;;;;;14.38;9.75;;;;;;;8.84;74.03;99709.06;1785705;80;21004;-40
2023/01/01 03:35:24;;;;;;;12.58;9.35;;;;;;;8.81;74.10;99693.50;1785786;79;21954;-40
2023/01/01 03:37:52;;;;;;;12.70;8.90;;;;;;;8.83;74.08;99702.64;1785817;80;21052;-40
2023/01/01 03:40:19;;;;;;;13.03;8.93;;;;;;;8.88;74.00;99700.50;1786016;79;21015;-40
2023/01/01 03:42:53;;;;;;;13.13;9.05;;;;;;;8.92;73.91;99702.74;1786147;79;21513;-40
2023/01/01 03:45:27;;;;;;;12.90;9.65;;;;;;;8.93;73.90;99702.18;1785837;80;21082;-40
2023/01/01 03:47:55;;;;;;;13.93;9.40;;;;;;;8.92;73.96;99708.16;1785927;80;21065;-40
2023/01/01 03:50:26;;;;;;;10.50;8.13;;;;;;;8.91;73.99;99711.97;1785895;80;20956;-41
2023/01/01 03:53:20;;;;;;;11.33;8.58;;;;;;;8.91;74.04;99716.03;1785883;79;21015;-40
2023/01/01 03:55:54;;;;;;;11.12;8.68;;;;;;;8.97;73.94;99722.80;1718745;83;21042;-40
2023/01/01 03:58:30;;;;;;;14.25;9.05;;;;;;;8.97;73.99;99720.09;1769656;80;20976;-40
2023/01/01 04:01:11;;;;;;;11.97;8.88;;;;;;;8.95;74.06;99727.77;1785995;80;21125;-40
2023/01/01 04:03:38;;;;;;;11.22;8.58;;;;;;;8.95;74.20;99720.22;1779501;80;21083;-40
2023/01/01 04:06:06;;;;;;;11.55;8.25;;;;;;;8.97;74.25;99712.53;1785925;80;21511;-40
2023/01/01 04:08:33;;;;;;;10.13;8.30;;;;;;;9.05;74.18;99708.35;1786394;80;20979;-40
2023/01/01 04:12:00;;;;;;;9.83;7.62;;;;;;;9.10;74.13;99707.36;1785946;80;21652;-40
2023/01/01 04:13:29;;;;;;;10.05;8.15;;;;;;;9.12;74.14;99712.64;1781631;80;21148;-40
2023/01/01 04:15:55;;;;;;;11.40;8.00;;;;;;;9.13;74.17;99711.52;1785895;80;21601;-40
2023/01/01 04:18:22;;;;;;;9.00;7.20;;;;;;;9.12;74.21;99717.25;1786016;79;21011;-40
2023/01/01 04:20:49;;;;;;;10.38;7.00;;;;;;;9.15;74.24;99717.35;1785814;80;20940;-41
2023/01/01 04:23:15;;;;;;;12.63;7.75;;;;;;;9.20;74.14;99711.51;1785826;80;21028;-40
2023/01/01 04:25:42;;;;;;;10.40;7.67;;;;;;;9.21;74.06;99713.85;1785915;80;21240;-40
2023/01/01 04:28:09;;;;;;;11.57;7.80;;;;;;;9.22;74.04;99717.35;1785862;80;21087;-40
2023/01/01 04:30:36;;;;;;;12.43;7.60;;;;;;;9.21;73.98;99721.17;1785889;80;20972;-40
2023/01/01 04:33:03;;;;;;;10.45;7.97;;;;;;;9.19;73.92;99725.59;1755846;80;21540;-40
2023/01/01 04:35:30;;;;;;;10.80;8.03;;;;;;;9.20;73.77;99728.50;1786023;80;21086;-40
2023/01/01 04:37:57;;;;;;;9.65;7.78;;;;;;;9.21;73.66;99740.11;1785924;79;21127;-40
2023/01/01 04:40:24;;;;;;;11.83;8.20;;;;;;;9.19;73.57;99732.36;1785662;79;21027;-40
2023/01/01 04:42:53;;;;;;;12.53;8.80;;;;;;;9.14;73.61;99732.03;1785991;80;21019;-40
2023/01/01 04:45:20;;;;;;;9.95;7.08;;;;;;;9.09;73.59;99730.91;1785909;80;21044;-40
2023/01/01 04:47:46;;;;;;;10.55;7.60;;;;;;;9.06;73.62;99724.02;1785884;80;21062;-40
2023/01/01 04:50:13;;;;;;;10.48;7.62;;;;;;;9.04;73.67;99723.59;1785937;80;21203;-40
2023/01/01 04:52:40;;;;;;;10.32;8.20;;;;;;;9.04;73.64;99727.08;1785855;79;20964;-40
2023/01/01 04:55:08;;;;;;;11.00;7.83;;;;;;;8.96;73.70;99725.27;1785991;80;20980;-40
2023/01/01 04:57:35;;;;;;;12.23;7.62;;;;;;;8.88;73.95;99723.48;1785920;80;21060;-40
2023/01/01 05:00:05;;;;;;;9.48;7.67;;;;;;;8.80;74.21;99733.86;1785890;79;21020;-40
2023/01/01 05:02:32;;;;;;;8.70;7.60;;;;;;;8.78;74.33;99736.09;1786136;79;21914;-40
2023/01/01 05:04:59;;;;;;;9.20;7.28;;;;;;;8.78;74.50;99742.86;1785743;80;20982;-40
2023/01/01 05:07:27;;;;;;;9.48;7.42;;;;;;;8.75;74.53;99747.59;1785900;79;21513;-40
2023/01/01 05:09:54;;;;;;;11.45;7.62;;;;;;;8.72;74.69;99746.34;1785836;79;21035;-40
2023/01/01 05:12:20;;;;;;;10.68;7.22;;;;;;;8.68;74.80;99741.95;1785831;79;21079;-40
2023/01/01 05:14:47;;;;;;;10.95;7.12;;;;;;;8.67;74.80;99736.31;1786237;80;21069;-40
2023/01/01 05:17:13;;;;;;;10.00;7.28;;;;;;;8.68;74.76;99744.65;1785725;79;20972;-40
2023/01/01 05:19:40;;;;;;;10.63;7.45;;;;;;;8.67;74.73;99745.77;1785920;80;21099;-40
2023/01/01 05:22:07;;;;;;;11.12;7.47;;;;;;;8.64;74.87;99742.40;1785694;80;21015;-40
2023/01/01 05:24:35;;;;;;;10.85;7.70;;;;;;;8.60;74.99;99749.61;1786239;80;21003;-40
2023/01/01 05:27:02;;;;;;;10.15;7.25;;;;;;;8.56;75.05;99746.80;1785929;80;21114;-40
2023/01/01 05:29:29;;;;;;;8.38;6.15;;;;;;;8.53;75.15;99746.66;1785644;80;21511;-40
2023/01/01 05:31:56;;;;;;;10.95;7.67;;;;;;;8.55;75.12;99751.17;1785914;79;21606;-40
2023/01/01 05:34:24;;;;;;;10.35;6.62;;;;;;;8.56;75.13;99750.06;1785839;80;20997;-40
2023/01/01 05:36:51;;;;;;;10.15;7.37;;;;;;;8.51;75.25;99744.88;1785903;80;21067;-40
2023/01/01 05:39:17;;;;;;;12.45;7.67;;;;;;;8.46;75.50;99735.63;1785679;80;21125;-40
2023/01/01 05:41:44;;;;;;;11.75;6.92;;;;;;;8.44;75.57;99740.57;1785832;80;20999;-40
2023/01/01 05:44:11;;;;;;;7.37;6.20;;;;;;;8.40;75.62;99737.75;1785787;80;21027;-40
2023/01/01 05:46:38;;;;;;;9.08;6.42;;;;;;;8.44;75.62;99741.92;1785963;80;20972;-40
2023/01/01 05:49:04;;;;;;;11.20;7.40;;;;;;;8.47;75.53;99738.56;1786011;79;21569;-40
2023/01/01 05:51:31;;;;;;;8.85;6.97;;;;;;;8.44;75.61;99736.52;1785846;80;21171;-41
2023/01/01 05:53:58;;;;;;;10.53;7.45;;;;;;;8.42;75.66;99748.23;1785862;79;20968;-40
2023/01/01 05:56:25;;;;;;;11.40;7.10;;;;;;;8.36;75.82;99757.11;1785764;80;21001;-40
2023/01/01 05:58:53;;;;;;;10.32;6.65;;;;;;;8.33;75.90;99757.00;1785723;80;21602;-40
2023/01/01 06:01:26;;;;;;;8.85;6.53;;;;;;;8.37;75.93;99759.26;1785717;80;21506;-40
2023/01/01 06:03:54;;;;;;;10.05;7.05;;;;;;;8.36;75.97;99757.11;1785780;80;21207;-41
2023/01/01 06:06:24;;;;;;;8.78;6.92;;;;;;;8.31;76.10;99754.63;1786047;80;20964;-40
2023/01/01 06:08:56;;;;;;;8.45;6.30;;;;;;;8.27;76.28;99759.09;1785543;80;20976;-40
2023/01/01 06:11:22;;;;;;;10.05;6.90;;;;;;;8.24;76.35;99760.53;1785741;80;21067;-40
2023/01/01 06:13:54;;;;;;;9.38;6.62;;;;;;;8.25;76.25;99758.06;1785892;80;21514;-40
2023/01/01 06:16:20;;;;;;;10.45;6.90;;;;;;;8.30;76.28;99747.64;1785662;80;21913;-40
2023/01/01 06:18:47;;;;;;;10.98;8.20;;;;;;;8.30;76.35;99746.29;1785814;79;21008;-40
2023/01/01 06:21:16;;;;;;;9.50;7.22;;;;;;;8.31;76.48;99755.19;1782855;80;21031;-40
2023/01/01 06:23:44;;;;;;;8.50;6.42;;;;;;;8.31;76.53;99755.19;1766666;81;20977;-40
2023/01/01 06:26:15;;;;;;;8.75;6.50;;;;;;;8.32;76.53;99750.02;1766798;81;21060;-40
2023/01/01 06:28:42;;;;;;;11.03;6.35;;;;;;;8.35;76.64;99750.69;1765758;81;21154;-40
2023/01/01 06:31:10;;;;;;;9.43;6.78;;;;;;;8.38;76.65;99758.11;1766579;81;21462;-40
2023/01/01 06:33:38;;;;;;;6.78;4.78;;;;;;;8.38;76.86;99758.11;1766763;81;21029;-40
2023/01/01 06:36:08;;;;;;;9.40;7.28;;;;;;;8.36;77.06;99763.08;1766651;81;21530;-40
2023/01/01 06:38:39;;;;;;;9.38;6.50;;;;;;;8.36;77.13;99760.38;1766555;81;20961;-40
2023/01/01 06:41:11;;;;;;;9.23;6.53;;;;;;;8.40;77.22;99761.28;1766537;81;21067;-41
2023/01/01 06:43:37;;;;;;;9.98;6.22;;;;;;;8.45;77.13;99763.77;1766465;81;20988;-41
2023/01/01 06:46:21;;;;;;;9.18;7.53;;;;;;;8.45;77.15;99763.20;1766617;81;21249;-40
2023/01/01 06:48:51;;;;;;;11.53;6.50;;;;;;;8.45;77.15;99761.86;1766538;81;21027;-40
2023/01/01 06:51:21;;;;;;;9.40;5.92;;;;;;;8.43;77.25;99758.69;1766749;81;21044;-40
2023/01/01 06:53:48;;;;;;;6.80;5.92;;;;;;;8.47;77.28;99755.54;1766652;81;21189;-41
2023/01/01 06:56:16;;;;;;;8.40;6.60;;;;;;;8.51;77.22;99760.52;1766483;81;20957;-40
2023/01/01 06:58:43;;;;;;;12.30;7.20;;;;;;;8.53;77.16;99765.02;1766414;81;21526;-40
2023/01/01 07:01:17;;;;;;;8.88;6.40;;;;;;;8.52;77.08;99762.66;1766578;81;20976;-40
2023/01/01 07:03:50;;;;;;;8.78;5.17;;;;;;;8.49;77.12;99767.38;1766530;81;21096;-41
2023/01/01 07:06:16;;;;;;;8.40;6.10;;;;;;;8.49;77.20;99761.97;1766649;81;21310;-41
2023/01/01 07:08:43;;;;;;;9.40;6.58;;;;;;;8.53;77.20;99765.57;1766353;81;20976;-41
2023/01/01 07:11:09;;;;;;;9.05;6.50;;;;;;;8.56;77.14;99773.03;1766631;81;20930;-40
2023/01/01 07:13:36;;;;;;;8.33;6.15;;;;;;;8.55;77.18;99772.80;1766509;81;21040;-40
2023/01/01 07:16:06;;;;;;;8.90;6.22;;;;;;;8.56;77.16;99776.52;1766692;81;21048;-40
2023/01/01 07:18:33;;;;;;;9.83;6.10;;;;;;;8.61;77.15;99775.52;1766681;81;21228;-40
2023/01/01 07:21:02;;;;;;;9.10;6.62;;;;;;;8.65;77.11;99772.36;1766870;81;21502;-40
2023/01/01 07:23:33;;;;;;;8.43;6.33;;;;;;;8.68;77.12;99783.84;1766457;80;20929;-40
2023/01/01 07:26:00;;;;;;;8.38;5.95;;;;;;;8.68;77.11;99785.19;1766802;81;21809;-41
2023/01/01 07:28:26;;;;;;;8.15;5.90;;;;;;;8.71;77.11;99784.53;1766653;81;21093;-40
2023/01/01 07:30:54;;;;;;;8.98;6.55;;;;;;;8.78;77.02;99792.87;1766748;81;21558;-40
2023/01/01 07:33:23;;;;;;;6.78;5.67;;;;;;;8.85;76.93;99780.95;1766565;81;20968;-40
2023/01/01 07:37:19;;;;;;;8.00;6.22;;;;;;;8.95;76.86;99779.14;1805269;78;22541;-40
2023/01/01 07:39:47;;;;;;;9.10;6.50;;;;;;;8.93;76.87;99771.92;1779968;80;21018;-40
2023/01/01 07:42:14;;;;;;;8.38;6.15;;;;;;;9.02;76.70;99768.54;1779948;80;21144;-40
2023/01/01 07:44:41;;;;;;;7.87;6.47;;;;;;;9.11;76.51;99764.36;1779785;80;21459;-40
2023/01/01 07:47:25;;;;;;;7.78;6.40;;;;;;;9.16;76.33;99773.03;1779945;80;20974;-40
2023/01/01 07:49:51;;;;;;;8.93;6.10;;;;;;;9.20;76.25;99766.97;1779922;80;20995;-40
2023/01/01 07:52:18;;;;;;;7.58;6.05;;;;;;;9.24;76.21;99774.62;1779842;80;20994;-40
2023/01/01 07:54:45;;;;;;;8.58;6.40;;;;;;;9.34;75.94;99771.45;1779903;80;23130;-40
2023/01/01 07:57:11;;;;;;;7.15;6.05;;;;;;;9.41;75.75;99765.67;1779747;80;20968;-40
2023/01/01 07:59:38;;;;;;;8.13;6.12;;;;;;;9.44;75.62;99766.34;1779806;80;21532;-40
2023/01/01 08:02:05;;;;;;;9.13;6.12;;;;;;;9.50;75.51;99768.25;1783488;79;21364;-40
2023/01/01 08:04:32;;;;;;;8.13;5.92;;;;;;;9.55;75.36;99759.89;1784244;79;21068;-40
2023/01/01 08:07:00;;;;;;;7.42;5.92;;;;;;;9.67;74.97;99757.16;1784303;79;22169;-40
2023/01/01 08:09:27;;;;;;;9.00;6.72;;;;;;;9.74;74.65;99748.44;1784196;80;20965;-40
2023/01/01 08:11:57;;;;;;;9.15;6.70;;;;;;;9.77;74.52;99753.97;1784398;79;21075;-40
2023/01/01 08:14:28;;;;;;;7.87;5.92;;;;;;;9.81;74.34;99759.48;1784214;80;20972;-40
2023/01/01 08:16:52;;;;;;;6.62;5.47;;;;;;;9.87;74.16;99759.47;1784117;80;21011;-40
2023/01/01 08:19:19;;;;;;;8.23;6.08;;;;;;;9.96;73.87;99758.19;1784304;80;21133;-40
2023/01/01 08:21:46;;;;;;;7.55;5.83;;;;;;;10.03;73.54;99754.30;1784311;79;21511;-40
2023/01/01 08:24:13;;;;;;;9.33;6.72;;;;;;;10.07;73.32;99753.62;1784176;80;21531;-40
2023/01/01 08:26:40;;;;;;;8.55;5.78;;;;;;;10.11;73.26;99763.42;1784489;80;21000;-40
2023/01/01 08:29:08;;;;;;;8.65;6.00;;;;;;;10.18;73.14;99757.42;1784292;80;21005;-40
2023/01/01 08:31:35;;;;;;;11.10;7.22;;;;;;;10.30;72.83;99753.30;1784255;80;21083;-40
2023/01/01 08:34:03;;;;;;;11.60;7.67;;;;;;;10.39;72.42;99760.70;1784338;80;21000;-40
2023/01/01 08:36:31;;;;;;;10.48;7.22;;;;;;;10.43;72.11;99758.86;1785982;79;21016;-40
2023/01/01 08:38:57;;;;;;;10.48;6.72;;;;;;;10.48;71.92;99759.95;1787671;79;20961;-40
2023/01/01 08:41:24;;;;;;;8.05;6.50;;;;;;;10.54;71.80;99753.15;1787642;79;20988;-40
2023/01/01 08:43:52;;;;;;;10.75;6.80;;;;;;;10.66;71.42;99759.03;1787638;80;21179;-40
2023/01/01 08:46:18;;;;;;;11.20;6.90;;;;;;;10.75;71.21;99758.30;1787523;80;21510;-40
2023/01/01 08:48:45;;;;;;;10.72;6.80;;;;;;;10.82;71.09;99755.77;1787099;80;20925;-40
2023/01/01 08:51:11;;;;;;;8.93;6.72;;;;;;;10.88;70.91;99751.09;1787006;79;20894;-40
2023/01/01 08:53:38;;;;;;;8.38;6.53;;;;;;;10.96;70.55;99762.88;1787299;79;21037;-40
2023/01/01 08:56:07;;;;;;;8.25;5.80;;;;;;;11.05;70.30;99752.62;1787146;79;21243;-40
2023/01/01 08:58:36;;;;;;;9.38;6.25;;;;;;;11.14;69.85;99747.00;1787458;80;20993;-40
2023/01/01 09:01:03;;;;;;;8.28;6.15;;;;;;;11.14;69.73;99741.58;1787384;80;21004;-40
2023/01/01 09:03:30;;;;;;;8.40;6.67;;;;;;;11.15;69.76;99748.58;1787039;79;21130;-40
2023/01/01 09:05:57;;;;;;;10.85;6.47;;;;;;;11.14;69.76;99738.86;1787004;80;20925;-40
2023/01/01 09:08:24;;;;;;;10.15;6.35;;;;;;;11.15;69.65;99743.16;1787026;79;21867;-40
2023/01/01 09:10:51;;;;;;;7.75;6.37;;;;;;;11.19;69.45;99735.88;1787090;80;20998;-41
2023/01/01 09:13:19;;;;;;;9.55;6.90;;;;;;;11.21;69.38;99734.97;1786980;80;20886;-40
2023/01/01 09:15:48;;;;;;;10.28;6.97;;;;;;;11.22;69.16;99731.11;1787150;80;21863;-40
2023/01/01 09:18:14;;;;;;;8.88;6.53;;;;;;;11.23;69.16;99734.81;1786922;80;21049;-40
2023/01/01 09:20:41;;;;;;;9.00;5.92;;;;;;;11.25;69.19;99731.19;1787069;79;21312;-41
2023/01/01 09:23:09;;;;;;;9.83;6.22;;;;;;;11.28;69.08;99722.89;1787066;80;20953;-40
2023/01/01 09:25:36;;;;;;;8.65;6.17;;;;;;;11.36;68.85;99724.64;1787193;80;21070;-41
2023/01/01 09:28:05;;;;;;;10.68;6.55;;;;;;;11.41;68.69;99724.36;1787072;80;21509;-40
2023/01/01 09:30:33;;;;;;;9.23;6.33;;;;;;;11.43;68.67;99716.63;1787124;80;21594;-40
2023/01/01 09:33:01;;;;;;;9.38;6.90;;;;;;;11.47;68.56;99716.16;1787330;80;21081;-40
2023/01/01 09:35:28;;;;;;;7.95;6.17;;;;;;;11.52;68.32;99714.48;1786731;80;20909;-40
2023/01/01 09:37:56;;;;;;;7.17;5.62;;;;;;;11.60;68.20;99714.86;1773222;79;20934;-40
2023/01/01 09:40:31;;;;;;;8.30;6.72;;;;;;;11.71;68.03;99717.80;1772805;81;21041;-40
2023/01/01 09:43:16;;;;;;;8.75;5.80;;;;;;;11.85;67.31;99726.83;1772808;80;21076;-40
2023/01/01 09:45:58;;;;;;;7.58;6.30;;;;;;;11.95;67.08;99730.33;1772763;80;21073;-40
2023/01/01 09:48:25;;;;;;;8.60;6.55;;;;;;;12.04;66.83;99739.03;1772760;80;20965;-40
2023/01/01 09:50:52;;;;;;;8.38;6.08;;;;;;;12.14;66.53;99733.02;1758939;81;20949;-40
2023/01/01 09:53:45;;;;;;;12.65;6.58;;;;;;;12.24;66.22;99722.12;1772938;79;21021;-40
2023/01/01 09:56:25;;;;;;;10.72;6.25;;;;;;;12.29;65.78;99706.30;1769685;80;20957;-40
2023/01/01 09:58:51;;;;;;;7.83;6.23;;;;;;;12.39;65.47;99716.55;1773129;81;21201;-41
2023/01/01 10:01:38;;;;;;;6.85;6.12;;;;;;;12.53;65.23;99700.50;1772949;81;20950;-40
2023/01/01 10:04:49;;;;;;;7.60;5.95;;;;;;;12.62;64.89;99703.75;1772931;81;21472;-41
2023/01/01 10:07:41;;;;;;;7.85;6.12;;;;;;;12.69;64.51;99705.78;1772860;81;21026;-41
2023/01/01 10:10:39;;;;;;;7.58;6.12;;;;;;;12.76;64.23;99700.46;1773035;79;21109;-40
2023/01/01 10:13:20;;;;;;;7.85;5.40;;;;;;;12.79;63.94;99707.09;1772931;81;21200;-40
2023/01/01 10:16:22;;;;;;;7.45;5.80;;;;;;;12.79;63.84;99712.53;1772551;80;21022;-41
2023/01/01 10:18:52;;;;;;;6.83;5.35;;;;;;;12.77;63.66;99706.69;1773026;81;21009;-41
2023/01/01 10:21:24;;;;;;;8.38;6.08;;;;;;;12.79;63.68;99714.69;1772865;81;20898;-41
2023/01/01 10:24:14;;;;;;;10.05;6.30;;;;;;;12.88;63.19;99704.90;1773222;79;20998;-40
2023/01/01 10:26:40;;;;;;;13.25;8.03;;;;;;;12.90;62.86;99710.77;1735540;81;21065;-41
2023/01/01 10:29:21;;;;;;;15.08;9.00;;;;;;;12.90;62.80;99712.92;1760453;80;21527;-41
2023/01/01 10:31:49;;;;;;;21.73;11.88;;;;;;;12.90;62.90;99721.66;1772944;79;21020;-40
2023/01/01 10:34:24;;;;;;;17.27;10.40;;;;;;;12.91;62.79;99715.07;1772677;81;21359;-41
2023/01/01 10:36:54;;;;;;;14.40;9.20;;;;;;;12.91;62.65;99712.34;1778272;79;20986;-41
2023/01/01 10:39:21;;;;;;;12.23;7.87;;;;;;;12.90;62.57;99721.08;1787123;80;21194;-40
2023/01/01 10:41:47;;;;;;;17.27;8.83;;;;;;;12.88;62.55;99701.60;1786932;79;20961;-41
2023/01/01 10:44:17;;;;;;;18.27;9.83;;;;;;;12.86;62.78;99704.50;1786773;79;20953;-41
2023/01/01 10:46:49;;;;;;;19.40;9.23;;;;;;;12.86;63.09;99707.22;1787201;80;20925;-40
2023/01/01 10:49:16;;;;;;;12.95;8.15;;;;;;;12.90;63.01;99717.00;1787106;79;21570;-41
2023/01/01 10:51:49;;;;;;;13.83;8.33;;;;;;;12.92;62.88;99713.35;1786935;80;21142;-41
2023/01/01 10:54:33;;;;;;;11.45;7.22;;;;;;;12.93;62.80;99705.95;1786798;80;21007;-41
2023/01/01 10:57:24;;;;;;;10.63;7.15;;;;;;;12.95;62.77;99702.30;1787024;80;20991;-41
2023/01/01 10:59:50;;;;;;;11.45;7.05;;;;;;;12.95;62.80;99700.94;1786382;80;21073;-41
2023/01/01 11:02:26;;;;;;;8.80;6.10;;;;;;;12.95;62.77;99707.17;1786837;80;21479;-41
2023/01/01 11:05:19;;;;;;;9.80;6.42;;;;;;;12.98;62.67;99709.72;1787145;79;21098;-40
2023/01/01 11:07:45;;;;;;;9.20;5.58;;;;;;;12.97;62.52;99704.84;1784767;79;20941;-41
2023/01/01 11:10:22;;;;;;;7.67;5.67;;;;;;;12.98;62.56;99709.14;1786951;79;21531;-41
2023/01/01 11:12:53;;;;;;;7.78;5.20;;;;;;;13.04;62.37;99710.41;1786246;79;21068;-41
2023/01/01 11:15:27;;;;;;;6.85;5.10;;;;;;;13.15;62.26;99711.95;1786935;80;20981;-41
2023/01/01 11:18:05;;;;;;;6.97;5.50;;;;;;;13.20;61.92;99704.05;1784908;80;23261;-41
2023/01/01 11:20:33;;;;;;;8.55;6.10;;;;;;;13.26;61.79;99708.02;1787125;79;20953;-41
2023/01/01 11:23:00;;;;;;;9.30;5.62;;;;;;;13.30;61.63;99702.83;1787054;79;21065;-41
2023/01/01 11:25:31;;;;;;;8.28;5.78;;;;;;;13.33;61.44;99704.80;1741886;80;21527;-41
2023/01/01 11:28:20;;;;;;;9.18;5.60;;;;;;;13.39;61.37;99702.55;1787059;80;21063;-41
2023/01/01 11:31:02;;;;;;;7.08;5.37;;;;;;;13.41;61.18;99696.14;1787130;79;21491;-41
2023/01/01 11:33:33;;;;;;;8.93;6.15;;;;;;;13.44;61.27;99693.48;1786792;79;20973;-41
2023/01/01 11:36:00;;;;;;;7.53;5.78;;;;;;;13.49;61.11;99686.34;1787358;80;20957;-41
2023/01/01 11:38:27;;;;;;;7.40;5.97;;;;;;;13.54;61.03;99689.32;1789322;80;20986;-41
2023/01/01 11:40:55;;;;;;;7.62;5.85;;;;;;;13.57;60.90;99693.23;1789539;79;21526;-41
2023/01/01 11:43:24;;;;;;;8.83;5.20;;;;;;;13.58;60.74;99686.05;1789431;79;21114;-41
2023/01/01 11:45:51;;;;;;;6.65;5.42;;;;;;;13.57;60.74;99700.04;1789689;80;20953;-41
2023/01/01 11:48:32;;;;;;;7.33;5.47;;;;;;;13.55;60.78;99703.73;1789309;80;21024;-41
2023/01/01 11:51:04;;;;;;;8.40;4.60;;;;;;;13.51;60.90;99698.21;1789435;79;21015;-41
2023/01/01 11:53:37;;;;;;;5.92;4.55;;;;;;;13.51;61.04;99694.73;1789145;79;20994;-41
2023/01/01 11:56:15;;;;;;;6.40;4.95;;;;;;;13.51;61.14;99690.64;1789693;80;21172;-41